Terminal Aerodrome Forecast
Issued by NWS Brownsville, TX

Home | Current Version | Previous Version | Text Only | Print | Product List | Glossary On
Versions: 1 2 3 4 5 6 7 8 9 10 11 12 13 14 15 16 17 18 19 20 21 22
000
FTUS44 KBRO 282331
TAFHRL
TAF
KHRL 282331Z 2900/2924 05009KT P6SM VCSH SKC
     FM290100 36003KT P6SM FEW025 BKN080
     FM291400 35005KT P6SM BKN050
      TEMPO 2915/2918 SCT050 SCT080
     FM291900 04010G17KT P6SM VCSH SCT030 BKN050 PROB30 2919/2922
      5SM -SHRA BKN025
     FM292200 04012G18KT P6SM VCSH BKN040 BKN100=

USA.gov is the U.S. government's official web portal to all federal, state and local government web resources and services.